LTAG/ADF METAR and TAF weather

Enter ICAO airport designator
Station Type Date Time Source
LTAG METAR 2021/04/17 02:20 UTC NOAA

LTAG 170220Z 05002KT CAVOK 12/10 Q1015 NOSIG


Station Type Date Time Source
LTAG Decoded METAR 2021/04/17 02:20 UTC NOAA

Adana / Incirlik, Turkey (LTAG) 37-00N 035-25E 66M
Apr 16, 2021 - 10:20 PM EDT / 2021.04.17 0220 UTC
Wind: from the NE (050 degrees) at 2 MPH (2 KT):0
Visibility: greater than 7 mile(s):0
Temperature: 53 F (12 C)
Dew Point: 50 F (10 C)
Relative Humidity: 87%
Pressure (altimeter): 29.97 in. Hg (1015 hPa)
ob: LTAG 170220Z 05002KT CAVOK 12/10 Q1015 NOSIG
cycle: 2

Station Type Date Time Source
LTAG TAF 2021/04/16 18:03 UTC NOAA

TAF TAF LTAG 161640Z 1618/1718 VRB02KT CAVOK

Example: see airport list